< Typhoon 201705 2017 Season Typhoon 201707 >
Typhoon 201706 (KULAP)
General InformationTrack Information on Google MapsDetailed Wind InformationForecast History on Google MapsAccess Analytics MapList of All Images || NewsDisaster Info.WeblogTrackbackTyphoon FrontTwiphoonTyphoon Now!Typhoon ImaginationDisaster Info. XMLResourceGoogle EarthGE AnimationAtom FeedGeoJSON
Detalied Best Track (Time Zone = UTC)
Year Month Day Hour Lat. Long. Pressure (hPa) Wind (kt) Class Image Chart
2017 7 20 06 24.7 179.0 1012 30 2 Image Chart
2017 7 20 09 24.8 178.7 1012 30 2 Image Chart
2017 7 20 12 24.8 178.3 1012 30 2 Image Chart
2017 7 20 15 24.8 177.5 1012 30 2 Image Chart
2017 7 20 18 24.9 177.3 1012 30 2 Image Chart
2017 7 20 21 24.9 177.0 1012 30 2 Image Chart
2017 7 21 00 25.1 176.8 1012 30 2 Image Chart
2017 7 21 03 26.0 177.0 1012 30 2 Image Chart
2017 7 21 06 26.6 177.1 1008 35 3 Image Chart
2017 7 21 09 27.1 177.0 1008 35 3 Image Chart
2017 7 21 12 28.2 176.8 1008 35 3 Image Chart
2017 7 21 15 29.2 176.1 1008 35 3 Image Chart
2017 7 21 18 30.4 175.5 1006 35 3 Image Chart
2017 7 21 21 30.5 173.6 1006 35 3 Image Chart
2017 7 22 00 30.5 172.2 1006 35 3 Image Chart
2017 7 22 03 30.4 170.9 1006 35 3 Image Chart
2017 7 22 06 30.0 170.6 1004 40 3 Image Chart
2017 7 22 09 29.9 170.2 1004 40 3 Image Chart
2017 7 22 12 30.0 169.6 1004 40 3 Image Chart
2017 7 22 15 30.2 169.0 1004 40 3 Image Chart
2017 7 22 18 30.4 168.3 1004 40 3 Image Chart
2017 7 22 21 30.5 167.8 1004 40 3 Image Chart
2017 7 23 00 30.6 167.3 1004 40 3 Image Chart
2017 7 23 03 30.6 167.0 1004 40 3 Image Chart
2017 7 23 06 30.8 166.5 1002 40 3 Image Chart
2017 7 23 09 31.0 166.1 1002 40 3 Image Chart
2017 7 23 12 31.1 165.5 1002 40 3 Image Chart
2017 7 23 15 31.2 164.7 1002 40 3 Image Chart
2017 7 23 18 31.2 164.1 1002 40 3 Image Chart
2017 7 23 21 31.4 163.8 1002 40 3 Image Chart
2017 7 24 00 31.7 163.5 1002 40 3 Image Chart
2017 7 24 03 32.3 162.6 1002 40 3 Image Chart
2017 7 24 06 32.6 161.7 1002 40 3 Image Chart
2017 7 24 09 32.9 161.0 1002 40 3 Image Chart
2017 7 24 12 33.0 160.1 1002 40 3 Image Chart
2017 7 24 15 33.1 159.1 1002 40 3 Image Chart
2017 7 24 18 33.2 158.3 1002 35 3 Image Chart
2017 7 24 21 33.2 157.3 1002 35 3 Image Chart
2017 7 25 00 33.0 156.5 1002 35 3 Image Chart
2017 7 25 03 32.9 155.8 1002 35 3 Image Chart
2017 7 25 06 32.8 155.0 1002 35 3 Image Chart
2017 7 25 09 32.6 154.4 1002 35 3 Image Chart
2017 7 25 12 32.0 154.0 1004 0 2 Image Chart
Japan Meteorological Agency Best Track Data | Correction Date : 2017-07-25
< Typhoon 201705 2017 Season Typhoon 201707 >

Help